sensor_id;sensor_type;location;lat;lon;timestamp;P1;durP1;ratioP1;P2;durP2;ratioP2
82292;SDS011;71892;14.836;105.234;2023-07-31T00:02:04;11.90;;;3.38;;
82292;SDS011;71892;14.836;105.234;2023-07-31T00:04:31;11.38;;;3.13;;
82292;SDS011;71892;14.836;105.234;2023-07-31T00:06:57;9.02;;;3.20;;
82292;SDS011;71892;14.836;105.234;2023-07-31T00:09:23;7.88;;;3.30;;
82292;SDS011;71892;14.836;105.234;2023-07-31T00:11:50;6.80;;;3.03;;
82292;SDS011;71892;14.836;105.234;2023-07-31T00:14:16;9.95;;;3.40;;
82292;SDS011;71892;14.836;105.234;2023-07-31T00:16:43;7.32;;;3.20;;
82292;SDS011;71892;14.836;105.234;2023-07-31T00:19:09;11.32;;;3.17;;
82292;SDS011;71892;14.836;105.234;2023-07-31T00:21:36;20.45;;;3.30;;
82292;SDS011;71892;14.836;105.234;2023-07-31T00:24:02;10.68;;;3.45;;
82292;SDS011;71892;14.836;105.234;2023-07-31T00:26:29;7.35;;;3.05;;
82292;SDS011;71892;14.836;105.234;2023-07-31T00:28:55;10.45;;;3.22;;
82292;SDS011;71892;14.836;105.234;2023-07-31T00:31:22;10.95;;;2.80;;
82292;SDS011;71892;14.836;105.234;2023-07-31T00:33:48;9.52;;;3.30;;
82292;SDS011;71892;14.836;105.234;2023-07-31T00:36:15;8.13;;;3.17;;
82292;SDS011;71892;14.836;105.234;2023-07-31T00:38:43;10.25;;;4.00;;
82292;SDS011;71892;14.836;105.234;2023-07-31T00:41:09;9.55;;;3.60;;
82292;SDS011;71892;14.836;105.234;2023-07-31T00:43:36;7.03;;;3.28;;
82292;SDS011;71892;14.836;105.234;2023-07-31T00:46:02;8.55;;;3.13;;
82292;SDS011;71892;14.836;105.234;2023-07-31T00:48:29;8.02;;;3.55;;
82292;SDS011;71892;14.836;105.234;2023-07-31T00:50:56;9.35;;;3.80;;
82292;SDS011;71892;14.836;105.234;2023-07-31T00:53:22;9.02;;;3.33;;
82292;SDS011;71892;14.836;105.234;2023-07-31T00:55:50;9.00;;;3.13;;
82292;SDS011;71892;14.836;105.234;2023-07-31T00:58:17;14.88;;;3.30;;
82292;SDS011;71892;14.836;105.234;2023-07-31T01:00:44;12.25;;;4.07;;
82292;SDS011;71892;14.836;105.234;2023-07-31T01:03:10;8.90;;;3.00;;
82292;SDS011;71892;14.836;105.234;2023-07-31T01:11:15;9.93;;;3.20;;
82292;SDS011;71892;14.836;105.234;2023-07-31T01:13:47;7.60;;;3.50;;
82292;SDS011;71892;14.836;105.234;2023-07-31T01:16:14;11.57;;;3.47;;
82292;SDS011;71892;14.836;105.234;2023-07-31T01:18:41;10.13;;;3.78;;
82292;SDS011;71892;14.836;105.234;2023-07-31T01:24:05;9.48;;;3.75;;
82292;SDS011;71892;14.836;105.234;2023-07-31T01:26:35;9.32;;;3.97;;
82292;SDS011;71892;14.836;105.234;2023-07-31T01:29:07;7.15;;;4.25;;
82292;SDS011;71892;14.836;105.234;2023-07-31T01:31:43;13.38;;;4.15;;
82292;SDS011;71892;14.836;105.234;2023-07-31T01:34:14;9.60;;;3.50;;
82292;SDS011;71892;14.836;105.234;2023-07-31T01:36:43;8.40;;;3.03;;
82292;SDS011;71892;14.836;105.234;2023-07-31T01:39:10;10.80;;;3.67;;
82292;SDS011;71892;14.836;105.234;2023-07-31T01:41:36;8.73;;;3.53;;
82292;SDS011;71892;14.836;105.234;2023-07-31T01:44:03;8.00;;;3.42;;
82292;SDS011;71892;14.836;105.234;2023-07-31T01:46:29;6.57;;;3.10;;
82292;SDS011;71892;14.836;105.234;2023-07-31T01:48:56;10.68;;;3.55;;
82292;SDS011;71892;14.836;105.234;2023-07-31T01:51:22;11.02;;;3.90;;
82292;SDS011;71892;14.836;105.234;2023-07-31T01:53:48;8.25;;;3.40;;
82292;SDS011;71892;14.836;105.234;2023-07-31T01:56:15;10.85;;;3.50;;
82292;SDS011;71892;14.836;105.234;2023-07-31T01:58:41;11.40;;;3.30;;
82292;SDS011;71892;14.836;105.234;2023-07-31T02:01:08;13.77;;;3.45;;
82292;SDS011;71892;14.836;105.234;2023-07-31T02:03:34;9.30;;;3.13;;
82292;SDS011;71892;14.836;105.234;2023-07-31T02:06:00;10.52;;;3.40;;
82292;SDS011;71892;14.836;105.234;2023-07-31T02:08:27;7.85;;;3.17;;
82292;SDS011;71892;14.836;105.234;2023-07-31T02:10:53;6.40;;;2.90;;
82292;SDS011;71892;14.836;105.234;2023-07-31T02:13:20;11.05;;;3.47;;
82292;SDS011;71892;14.836;105.234;2023-07-31T02:15:47;8.43;;;3.13;;
82292;SDS011;71892;14.836;105.234;2023-07-31T02:18:14;8.68;;;3.00;;
82292;SDS011;71892;14.836;105.234;2023-07-31T02:20:40;13.35;;;3.80;;
82292;SDS011;71892;14.836;105.234;2023-07-31T02:23:07;11.20;;;3.38;;
82292;SDS011;71892;14.836;105.234;2023-07-31T02:25:33;13.80;;;3.65;;
82292;SDS011;71892;14.836;105.234;2023-07-31T02:28:00;8.50;;;3.25;;
82292;SDS011;71892;14.836;105.234;2023-07-31T02:30:26;12.38;;;3.25;;
82292;SDS011;71892;14.836;105.234;2023-07-31T02:32:52;10.60;;;3.38;;
82292;SDS011;71892;14.836;105.234;2023-07-31T02:35:19;9.57;;;3.10;;
82292;SDS011;71892;14.836;105.234;2023-07-31T02:37:45;18.17;;;4.20;;
82292;SDS011;71892;14.836;105.234;2023-07-31T02:40:12;15.57;;;3.30;;
82292;SDS011;71892;14.836;105.234;2023-07-31T02:42:38;12.18;;;3.30;;
82292;SDS011;71892;14.836;105.234;2023-07-31T02:45:05;13.63;;;4.10;;
82292;SDS011;71892;14.836;105.234;2023-07-31T02:47:32;12.05;;;3.10;;
82292;SDS011;71892;14.836;105.234;2023-07-31T02:49:59;9.35;;;3.50;;
82292;SDS011;71892;14.836;105.234;2023-07-31T02:52:25;7.57;;;3.13;;
82292;SDS011;71892;14.836;105.234;2023-07-31T02:54:52;11.25;;;3.45;;
82292;SDS011;71892;14.836;105.234;2023-07-31T02:57:18;11.85;;;3.65;;
82292;SDS011;71892;14.836;105.234;2023-07-31T02:59:45;13.80;;;4.00;;
82292;SDS011;71892;14.836;105.234;2023-07-31T03:02:11;10.63;;;3.60;;
82292;SDS011;71892;14.836;105.234;2023-07-31T03:04:38;12.43;;;3.28;;
82292;SDS011;71892;14.836;105.234;2023-07-31T03:07:05;8.68;;;3.72;;
82292;SDS011;71892;14.836;105.234;2023-07-31T03:09:31;11.45;;;4.18;;
82292;SDS011;71892;14.836;105.234;2023-07-31T03:11:58;7.72;;;3.08;;
82292;SDS011;71892;14.836;105.234;2023-07-31T03:14:24;9.90;;;3.42;;
82292;SDS011;71892;14.836;105.234;2023-07-31T03:16:52;12.45;;;3.38;;
82292;SDS011;71892;14.836;105.234;2023-07-31T03:19:19;12.80;;;4.55;;
82292;SDS011;71892;14.836;105.234;2023-07-31T03:21:45;8.25;;;3.30;;
82292;SDS011;71892;14.836;105.234;2023-07-31T03:24:12;10.77;;;3.50;;
82292;SDS011;71892;14.836;105.234;2023-07-31T03:26:38;11.65;;;3.35;;
82292;SDS011;71892;14.836;105.234;2023-07-31T03:29:07;11.88;;;4.07;;
82292;SDS011;71892;14.836;105.234;2023-07-31T03:31:33;10.35;;;3.25;;
82292;SDS011;71892;14.836;105.234;2023-07-31T03:34:00;12.52;;;4.10;;
82292;SDS011;71892;14.836;105.234;2023-07-31T03:36:26;12.93;;;3.40;;
82292;SDS011;71892;14.836;105.234;2023-07-31T03:38:53;9.93;;;3.10;;
82292;SDS011;71892;14.836;105.234;2023-07-31T03:41:20;9.52;;;3.60;;
82292;SDS011;71892;14.836;105.234;2023-07-31T03:43:49;12.95;;;3.97;;
82292;SDS011;71892;14.836;105.234;2023-07-31T03:46:21;14.13;;;3.60;;
82292;SDS011;71892;14.836;105.234;2023-07-31T03:48:48;10.32;;;3.97;;
82292;SDS011;71892;14.836;105.234;2023-07-31T03:51:15;9.85;;;3.53;;
82292;SDS011;71892;14.836;105.234;2023-07-31T03:53:43;11.65;;;3.50;;
82292;SDS011;71892;14.836;105.234;2023-07-31T03:56:10;9.75;;;3.58;;
82292;SDS011;71892;14.836;105.234;2023-07-31T03:58:36;8.43;;;2.88;;
82292;SDS011;71892;14.836;105.234;2023-07-31T04:01:03;9.65;;;3.20;;
82292;SDS011;71892;14.836;105.234;2023-07-31T04:03:29;10.85;;;3.08;;
82292;SDS011;71892;14.836;105.234;2023-07-31T04:05:56;10.32;;;3.53;;
82292;SDS011;71892;14.836;105.234;2023-07-31T04:08:23;9.43;;;3.03;;
82292;SDS011;71892;14.836;105.234;2023-07-31T04:10:49;12.27;;;3.60;;
82292;SDS011;71892;14.836;105.234;2023-07-31T04:13:16;12.50;;;3.63;;
82292;SDS011;71892;14.836;105.234;2023-07-31T04:15:43;12.80;;;3.22;;
82292;SDS011;71892;14.836;105.234;2023-07-31T04:18:15;13.27;;;3.10;;
82292;SDS011;71892;14.836;105.234;2023-07-31T04:20:42;13.57;;;2.95;;
82292;SDS011;71892;14.836;105.234;2023-07-31T04:23:09;12.43;;;3.35;;
82292;SDS011;71892;14.836;105.234;2023-07-31T04:25:35;12.07;;;3.25;;
82292;SDS011;71892;14.836;105.234;2023-07-31T04:28:01;9.60;;;3.97;;
82292;SDS011;71892;14.836;105.234;2023-07-31T04:30:28;11.00;;;3.38;;
82292;SDS011;71892;14.836;105.234;2023-07-31T04:32:54;10.95;;;3.50;;
82292;SDS011;71892;14.836;105.234;2023-07-31T04:35:21;8.63;;;3.17;;
82292;SDS011;71892;14.836;105.234;2023-07-31T04:37:47;10.73;;;2.83;;
82292;SDS011;71892;14.836;105.234;2023-07-31T04:40:15;9.63;;;2.80;;
82292;SDS011;71892;14.836;105.234;2023-07-31T04:42:42;10.80;;;3.60;;
82292;SDS011;71892;14.836;105.234;2023-07-31T04:45:08;8.38;;;2.67;;
82292;SDS011;71892;14.836;105.234;2023-07-31T04:47:35;11.55;;;3.20;;
82292;SDS011;71892;14.836;105.234;2023-07-31T04:50:01;10.85;;;3.50;;
82292;SDS011;71892;14.836;105.234;2023-07-31T04:52:28;6.68;;;2.85;;
82292;SDS011;71892;14.836;105.234;2023-07-31T04:54:54;12.60;;;3.20;;
82292;SDS011;71892;14.836;105.234;2023-07-31T04:57:21;12.10;;;3.45;;
82292;SDS011;71892;14.836;105.234;2023-07-31T04:59:47;10.98;;;3.13;;
82292;SDS011;71892;14.836;105.234;2023-07-31T05:02:14;7.68;;;2.97;;
82292;SDS011;71892;14.836;105.234;2023-07-31T05:04:40;9.00;;;3.28;;
82292;SDS011;71892;14.836;105.234;2023-07-31T05:07:07;10.63;;;2.65;;
82292;SDS011;71892;14.836;105.234;2023-07-31T05:09:33;10.32;;;3.30;;
82292;SDS011;71892;14.836;105.234;2023-07-31T05:12:00;12.45;;;3.58;;
82292;SDS011;71892;14.836;105.234;2023-07-31T05:14:26;11.20;;;3.05;;
82292;SDS011;71892;14.836;105.234;2023-07-31T05:16:52;10.77;;;3.45;;
82292;SDS011;71892;14.836;105.234;2023-07-31T05:19:19;12.30;;;3.15;;
82292;SDS011;71892;14.836;105.234;2023-07-31T05:21:45;10.57;;;3.60;;
82292;SDS011;71892;14.836;105.234;2023-07-31T05:24:12;8.43;;;2.90;;
82292;SDS011;71892;14.836;105.234;2023-07-31T05:26:38;12.43;;;3.47;;
82292;SDS011;71892;14.836;105.234;2023-07-31T05:29:04;9.25;;;3.28;;
82292;SDS011;71892;14.836;105.234;2023-07-31T05:31:31;12.27;;;3.92;;
82292;SDS011;71892;14.836;105.234;2023-07-31T05:33:58;9.25;;;3.35;;
82292;SDS011;71892;14.836;105.234;2023-07-31T05:36:24;8.68;;;2.90;;
82292;SDS011;71892;14.836;105.234;2023-07-31T05:38:50;9.48;;;3.50;;
82292;SDS011;71892;14.836;105.234;2023-07-31T05:41:17;9.95;;;3.00;;
82292;SDS011;71892;14.836;105.234;2023-07-31T05:43:43;12.95;;;3.25;;
82292;SDS011;71892;14.836;105.234;2023-07-31T05:46:11;16.38;;;4.13;;
82292;SDS011;71892;14.836;105.234;2023-07-31T05:48:37;14.80;;;3.28;;
82292;SDS011;71892;14.836;105.234;2023-07-31T05:51:04;9.57;;;3.38;;
82292;SDS011;71892;14.836;105.234;2023-07-31T05:53:30;10.70;;;3.45;;
82292;SDS011;71892;14.836;105.234;2023-07-31T05:55:56;8.18;;;3.67;;
82292;SDS011;71892;14.836;105.234;2023-07-31T05:58:23;12.25;;;3.40;;
82292;SDS011;71892;14.836;105.234;2023-07-31T06:00:49;13.27;;;3.90;;
82292;SDS011;71892;14.836;105.234;2023-07-31T06:03:16;13.75;;;4.28;;
82292;SDS011;71892;14.836;105.234;2023-07-31T06:05:42;13.30;;;3.65;;
82292;SDS011;71892;14.836;105.234;2023-07-31T06:08:09;9.75;;;3.05;;
82292;SDS011;71892;14.836;105.234;2023-07-31T06:10:35;12.40;;;3.58;;
82292;SDS011;71892;14.836;105.234;2023-07-31T06:13:02;10.50;;;3.58;;
82292;SDS011;71892;14.836;105.234;2023-07-31T06:15:28;12.55;;;3.20;;
82292;SDS011;71892;14.836;105.234;2023-07-31T06:17:55;12.60;;;3.28;;
82292;SDS011;71892;14.836;105.234;2023-07-31T06:20:22;15.65;;;3.47;;
82292;SDS011;71892;14.836;105.234;2023-07-31T06:22:49;12.50;;;3.40;;
82292;SDS011;71892;14.836;105.234;2023-07-31T06:25:15;12.18;;;3.65;;
82292;SDS011;71892;14.836;105.234;2023-07-31T06:27:42;13.52;;;3.30;;
82292;SDS011;71892;14.836;105.234;2023-07-31T06:30:08;11.30;;;3.72;;
82292;SDS011;71892;14.836;105.234;2023-07-31T06:32:35;12.88;;;3.35;;
82292;SDS011;71892;14.836;105.234;2023-07-31T06:35:01;15.43;;;3.25;;
82292;SDS011;71892;14.836;105.234;2023-07-31T06:37:28;7.63;;;2.45;;
82292;SDS011;71892;14.836;105.234;2023-07-31T06:39:54;9.85;;;3.25;;
82292;SDS011;71892;14.836;105.234;2023-07-31T06:42:21;11.13;;;3.10;;
82292;SDS011;71892;14.836;105.234;2023-07-31T06:44:47;8.82;;;3.15;;
82292;SDS011;71892;14.836;105.234;2023-07-31T06:47:14;13.73;;;3.83;;
82292;SDS011;71892;14.836;105.234;2023-07-31T06:49:40;10.95;;;3.15;;
82292;SDS011;71892;14.836;105.234;2023-07-31T06:52:07;11.65;;;2.95;;
82292;SDS011;71892;14.836;105.234;2023-07-31T06:54:33;12.18;;;3.78;;
82292;SDS011;71892;14.836;105.234;2023-07-31T06:57:00;9.32;;;3.20;;
82292;SDS011;71892;14.836;105.234;2023-07-31T06:59:26;10.98;;;3.30;;
82292;SDS011;71892;14.836;105.234;2023-07-31T07:01:53;10.07;;;3.50;;
82292;SDS011;71892;14.836;105.234;2023-07-31T07:04:19;11.38;;;3.50;;
82292;SDS011;71892;14.836;105.234;2023-07-31T07:06:45;11.32;;;3.72;;
82292;SDS011;71892;14.836;105.234;2023-07-31T07:09:12;16.05;;;4.13;;
82292;SDS011;71892;14.836;105.234;2023-07-31T07:11:38;10.93;;;3.35;;
82292;SDS011;71892;14.836;105.234;2023-07-31T07:14:05;9.05;;;3.08;;
82292;SDS011;71892;14.836;105.234;2023-07-31T07:16:31;15.77;;;4.05;;
82292;SDS011;71892;14.836;105.234;2023-07-31T07:18:58;12.20;;;3.33;;
82292;SDS011;71892;14.836;105.234;2023-07-31T07:21:24;8.98;;;3.15;;
82292;SDS011;71892;14.836;105.234;2023-07-31T07:23:51;10.13;;;3.00;;
82292;SDS011;71892;14.836;105.234;2023-07-31T07:26:17;9.57;;;3.50;;
82292;SDS011;71892;14.836;105.234;2023-07-31T07:28:44;10.20;;;3.17;;
82292;SDS011;71892;14.836;105.234;2023-07-31T07:31:10;11.43;;;3.13;;
82292;SDS011;71892;14.836;105.234;2023-07-31T07:33:36;11.55;;;3.05;;
82292;SDS011;71892;14.836;105.234;2023-07-31T07:36:03;7.93;;;3.28;;
82292;SDS011;71892;14.836;105.234;2023-07-31T07:38:31;13.48;;;3.47;;
82292;SDS011;71892;14.836;105.234;2023-07-31T07:40:57;9.70;;;3.20;;
82292;SDS011;71892;14.836;105.234;2023-07-31T07:43:23;11.20;;;3.25;;
82292;SDS011;71892;14.836;105.234;2023-07-31T07:45:50;9.02;;;2.63;;
82292;SDS011;71892;14.836;105.234;2023-07-31T07:48:16;8.30;;;2.75;;
82292;SDS011;71892;14.836;105.234;2023-07-31T07:50:43;11.20;;;2.65;;
82292;SDS011;71892;14.836;105.234;2023-07-31T07:53:09;14.85;;;3.53;;
82292;SDS011;71892;14.836;105.234;2023-07-31T07:55:36;9.98;;;2.85;;
82292;SDS011;71892;14.836;105.234;2023-07-31T07:58:02;8.75;;;2.92;;
82292;SDS011;71892;14.836;105.234;2023-07-31T08:00:28;10.15;;;3.42;;
82292;SDS011;71892;14.836;105.234;2023-07-31T08:02:55;12.32;;;3.13;;
82292;SDS011;71892;14.836;105.234;2023-07-31T08:05:23;7.82;;;2.97;;
82292;SDS011;71892;14.836;105.234;2023-07-31T08:07:50;10.70;;;2.95;;
82292;SDS011;71892;14.836;105.234;2023-07-31T08:10:16;10.98;;;3.45;;
82292;SDS011;71892;14.836;105.234;2023-07-31T08:12:43;10.45;;;3.13;;
82292;SDS011;71892;14.836;105.234;2023-07-31T08:15:09;12.57;;;3.28;;
82292;SDS011;71892;14.836;105.234;2023-07-31T08:17:36;12.65;;;3.45;;
82292;SDS011;71892;14.836;105.234;2023-07-31T08:20:02;10.82;;;2.83;;
82292;SDS011;71892;14.836;105.234;2023-07-31T08:22:30;16.02;;;3.20;;
82292;SDS011;71892;14.836;105.234;2023-07-31T08:24:57;8.18;;;3.58;;
82292;SDS011;71892;14.836;105.234;2023-07-31T08:27:23;9.20;;;3.88;;
82292;SDS011;71892;14.836;105.234;2023-07-31T08:29:51;8.13;;;3.58;;
82292;SDS011;71892;14.836;105.234;2023-07-31T08:32:18;9.70;;;3.20;;
82292;SDS011;71892;14.836;105.234;2023-07-31T08:34:44;12.32;;;2.72;;
82292;SDS011;71892;14.836;105.234;2023-07-31T08:37:11;10.32;;;3.90;;
82292;SDS011;71892;14.836;105.234;2023-07-31T08:39:37;8.40;;;2.75;;
82292;SDS011;71892;14.836;105.234;2023-07-31T08:42:07;6.45;;;3.28;;
82292;SDS011;71892;14.836;105.234;2023-07-31T08:44:34;8.77;;;3.45;;
82292;SDS011;71892;14.836;105.234;2023-07-31T08:47:02;8.27;;;3.50;;
82292;SDS011;71892;14.836;105.234;2023-07-31T08:49:29;8.77;;;3.75;;
82292;SDS011;71892;14.836;105.234;2023-07-31T08:51:57;11.90;;;3.28;;
82292;SDS011;71892;14.836;105.234;2023-07-31T08:54:24;20.63;;;9.68;;
82292;SDS011;71892;14.836;105.234;2023-07-31T08:56:54;12.73;;;5.00;;
82292;SDS011;71892;14.836;105.234;2023-07-31T08:59:22;13.25;;;3.50;;
82292;SDS011;71892;14.836;105.234;2023-07-31T09:01:50;9.23;;;2.92;;
82292;SDS011;71892;14.836;105.234;2023-07-31T09:04:21;9.35;;;2.78;;
82292;SDS011;71892;14.836;105.234;2023-07-31T09:06:49;9.27;;;2.63;;
82292;SDS011;71892;14.836;105.234;2023-07-31T09:09:20;9.90;;;3.45;;
82292;SDS011;71892;14.836;105.234;2023-07-31T09:11:46;11.10;;;3.50;;
82292;SDS011;71892;14.836;105.234;2023-07-31T09:14:13;8.23;;;3.25;;
82292;SDS011;71892;14.836;105.234;2023-07-31T09:19:34;10.23;;;3.10;;
82292;SDS011;71892;14.836;105.234;2023-07-31T09:22:05;11.55;;;3.53;;
82292;SDS011;71892;14.836;105.234;2023-07-31T09:24:33;13.65;;;4.35;;
82292;SDS011;71892;14.836;105.234;2023-07-31T09:27:01;10.80;;;3.45;;
82292;SDS011;71892;14.836;105.234;2023-07-31T09:29:28;16.17;;;3.70;;
82292;SDS011;71892;14.836;105.234;2023-07-31T09:31:55;13.18;;;3.75;;
82292;SDS011;71892;14.836;105.234;2023-07-31T09:34:37;7.82;;;2.95;;
82292;SDS011;71892;14.836;105.234;2023-07-31T09:37:04;12.00;;;3.38;;
82292;SDS011;71892;14.836;105.234;2023-07-31T09:39:31;12.82;;;3.47;;
82292;SDS011;71892;14.836;105.234;2023-07-31T09:41:57;13.65;;;3.50;;
82292;SDS011;71892;14.836;105.234;2023-07-31T09:44:37;12.55;;;3.63;;
82292;SDS011;71892;14.836;105.234;2023-07-31T09:47:07;9.15;;;3.47;;
82292;SDS011;71892;14.836;105.234;2023-07-31T09:49:49;11.00;;;3.83;;
82292;SDS011;71892;14.836;105.234;2023-07-31T09:52:15;11.55;;;3.85;;
82292;SDS011;71892;14.836;105.234;2023-07-31T09:54:42;12.10;;;3.28;;
82292;SDS011;71892;14.836;105.234;2023-07-31T09:57:08;11.50;;;3.60;;
82292;SDS011;71892;14.836;105.234;2023-07-31T09:59:36;17.40;;;3.60;;
82292;SDS011;71892;14.836;105.234;2023-07-31T10:02:03;13.93;;;4.20;;
82292;SDS011;71892;14.836;105.234;2023-07-31T10:04:30;9.77;;;4.05;;
82292;SDS011;71892;14.836;105.234;2023-07-31T10:06:56;10.65;;;3.60;;
82292;SDS011;71892;14.836;105.234;2023-07-31T10:09:26;10.68;;;3.42;;
82292;SDS011;71892;14.836;105.234;2023-07-31T10:12:02;10.13;;;3.15;;
82292;SDS011;71892;14.836;105.234;2023-07-31T10:14:35;9.20;;;3.80;;
82292;SDS011;71892;14.836;105.234;2023-07-31T10:17:02;14.57;;;3.88;;
82292;SDS011;71892;14.836;105.234;2023-07-31T10:19:30;8.82;;;3.08;;
82292;SDS011;71892;14.836;105.234;2023-07-31T10:21:57;12.48;;;3.85;;
82292;SDS011;71892;14.836;105.234;2023-07-31T10:24:25;10.45;;;3.78;;
82292;SDS011;71892;14.836;105.234;2023-07-31T10:26:52;14.35;;;3.80;;
82292;SDS011;71892;14.836;105.234;2023-07-31T10:29:21;9.23;;;3.38;;
82292;SDS011;71892;14.836;105.234;2023-07-31T10:31:49;9.57;;;2.95;;
82292;SDS011;71892;14.836;105.234;2023-07-31T10:34:17;12.80;;;3.30;;
82292;SDS011;71892;14.836;105.234;2023-07-31T10:36:44;9.55;;;3.17;;
82292;SDS011;71892;14.836;105.234;2023-07-31T10:39:56;7.65;;;3.05;;
82292;SDS011;71892;14.836;105.234;2023-07-31T10:42:13;10.95;;;3.83;;
82292;SDS011;71892;14.836;105.234;2023-07-31T10:44:49;9.00;;;3.25;;
82292;SDS011;71892;14.836;105.234;2023-07-31T10:47:15;15.27;;;3.42;;
82292;SDS011;71892;14.836;105.234;2023-07-31T10:49:46;10.48;;;4.07;;
82292;SDS011;71892;14.836;105.234;2023-07-31T10:52:13;9.90;;;3.55;;
82292;SDS011;71892;14.836;105.234;2023-07-31T10:54:39;11.93;;;3.83;;
82292;SDS011;71892;14.836;105.234;2023-07-31T10:57:21;10.52;;;3.72;;
82292;SDS011;71892;14.836;105.234;2023-07-31T10:59:49;12.32;;;3.22;;
82292;SDS011;71892;14.836;105.234;2023-07-31T11:02:34;12.35;;;3.63;;
82292;SDS011;71892;14.836;105.234;2023-07-31T11:05:08;14.48;;;3.80;;
82292;SDS011;71892;14.836;105.234;2023-07-31T11:07:48;10.55;;;3.70;;
82292;SDS011;71892;14.836;105.234;2023-07-31T11:10:18;9.73;;;3.78;;
82292;SDS011;71892;14.836;105.234;2023-07-31T11:12:45;13.95;;;4.38;;
82292;SDS011;71892;14.836;105.234;2023-07-31T11:15:12;10.77;;;3.70;;
82292;SDS011;71892;14.836;105.234;2023-07-31T11:17:39;92.60;;;38.00;;
82292;SDS011;71892;14.836;105.234;2023-07-31T11:20:06;137.50;;;49.47;;
82292;SDS011;71892;14.836;105.234;2023-07-31T11:22:35;88.75;;;34.45;;
82292;SDS011;71892;14.836;105.234;2023-07-31T11:25:05;121.00;;;48.63;;
82292;SDS011;71892;14.836;105.234;2023-07-31T11:27:38;75.55;;;30.33;;
82292;SDS011;71892;14.836;105.234;2023-07-31T11:30:06;23.88;;;8.52;;
82292;SDS011;71892;14.836;105.234;2023-07-31T11:32:33;18.88;;;7.93;;
82292;SDS011;71892;14.836;105.234;2023-07-31T11:34:59;20.83;;;7.57;;
82292;SDS011;71892;14.836;105.234;2023-07-31T11:37:38;125.53;;;50.47;;
82292;SDS011;71892;14.836;105.234;2023-07-31T11:40:08;150.15;;;60.47;;
82292;SDS011;71892;14.836;105.234;2023-07-31T11:42:35;77.43;;;33.95;;
82292;SDS011;71892;14.836;105.234;2023-07-31T11:45:04;66.03;;;29.40;;
82292;SDS011;71892;14.836;105.234;2023-07-31T11:47:34;29.23;;;14.60;;
82292;SDS011;71892;14.836;105.234;2023-07-31T11:50:02;50.08;;;24.95;;
82292;SDS011;71892;14.836;105.234;2023-07-31T11:52:32;25.75;;;9.88;;
82292;SDS011;71892;14.836;105.234;2023-07-31T11:55:03;27.02;;;13.07;;
82292;SDS011;71892;14.836;105.234;2023-07-31T11:57:32;25.67;;;12.35;;
82292;SDS011;71892;14.836;105.234;2023-07-31T11:59:59;13.75;;;7.15;;
82292;SDS011;71892;14.836;105.234;2023-07-31T12:02:25;16.35;;;7.15;;
82292;SDS011;71892;14.836;105.234;2023-07-31T12:04:52;20.58;;;8.00;;
82292;SDS011;71892;14.836;105.234;2023-07-31T12:07:19;14.95;;;6.35;;
82292;SDS011;71892;14.836;105.234;2023-07-31T12:09:54;16.45;;;5.50;;
82292;SDS011;71892;14.836;105.234;2023-07-31T12:12:22;18.77;;;6.25;;
82292;SDS011;71892;14.836;105.234;2023-07-31T12:14:50;9.35;;;4.82;;
82292;SDS011;71892;14.836;105.234;2023-07-31T12:17:17;10.18;;;3.60;;
82292;SDS011;71892;14.836;105.234;2023-07-31T12:19:48;12.07;;;3.88;;
82292;SDS011;71892;14.836;105.234;2023-07-31T12:22:15;8.98;;;4.30;;
82292;SDS011;71892;14.836;105.234;2023-07-31T12:24:44;9.38;;;3.22;;
82292;SDS011;71892;14.836;105.234;2023-07-31T12:27:11;8.43;;;3.28;;
82292;SDS011;71892;14.836;105.234;2023-07-31T12:29:39;8.02;;;3.33;;
82292;SDS011;71892;14.836;105.234;2023-07-31T12:32:22;8.85;;;3.30;;
82292;SDS011;71892;14.836;105.234;2023-07-31T12:34:54;15.40;;;4.75;;
82292;SDS011;71892;14.836;105.234;2023-07-31T12:37:20;6.80;;;3.42;;
82292;SDS011;71892;14.836;105.234;2023-07-31T12:39:47;13.85;;;3.72;;
82292;SDS011;71892;14.836;105.234;2023-07-31T12:42:14;5.78;;;3.15;;
82292;SDS011;71892;14.836;105.234;2023-07-31T12:44:42;6.47;;;3.08;;
82292;SDS011;71892;14.836;105.234;2023-07-31T12:47:09;6.45;;;2.70;;
82292;SDS011;71892;14.836;105.234;2023-07-31T12:49:35;8.68;;;2.88;;
82292;SDS011;71892;14.836;105.234;2023-07-31T12:52:02;8.30;;;2.95;;
82292;SDS011;71892;14.836;105.234;2023-07-31T12:54:28;5.05;;;2.85;;
82292;SDS011;71892;14.836;105.234;2023-07-31T12:56:55;6.85;;;3.00;;
82292;SDS011;71892;14.836;105.234;2023-07-31T12:59:21;7.18;;;2.70;;
82292;SDS011;71892;14.836;105.234;2023-07-31T13:01:47;6.45;;;2.60;;
82292;SDS011;71892;14.836;105.234;2023-07-31T13:04:14;5.38;;;2.38;;
82292;SDS011;71892;14.836;105.234;2023-07-31T13:06:40;13.38;;;2.72;;
82292;SDS011;71892;14.836;105.234;2023-07-31T13:09:07;6.20;;;2.67;;
82292;SDS011;71892;14.836;105.234;2023-07-31T13:11:34;5.90;;;2.80;;
82292;SDS011;71892;14.836;105.234;2023-07-31T13:14:01;7.75;;;2.90;;
82292;SDS011;71892;14.836;105.234;2023-07-31T13:16:27;8.88;;;2.80;;
82292;SDS011;71892;14.836;105.234;2023-07-31T13:18:53;6.22;;;2.90;;
82292;SDS011;71892;14.836;105.234;2023-07-31T13:21:20;9.45;;;3.00;;
82292;SDS011;71892;14.836;105.234;2023-07-31T13:23:47;6.35;;;2.85;;
82292;SDS011;71892;14.836;105.234;2023-07-31T13:26:14;8.27;;;3.50;;
82292;SDS011;71892;14.836;105.234;2023-07-31T13:28:40;5.35;;;3.03;;
82292;SDS011;71892;14.836;105.234;2023-07-31T13:31:06;9.90;;;3.70;;
82292;SDS011;71892;14.836;105.234;2023-07-31T13:33:33;8.95;;;4.00;;
82292;SDS011;71892;14.836;105.234;2023-07-31T13:35:59;8.40;;;3.58;;
82292;SDS011;71892;14.836;105.234;2023-07-31T13:38:26;8.20;;;3.88;;
82292;SDS011;71892;14.836;105.234;2023-07-31T13:40:52;7.47;;;3.33;;
82292;SDS011;71892;14.836;105.234;2023-07-31T13:43:19;8.38;;;3.53;;
82292;SDS011;71892;14.836;105.234;2023-07-31T13:45:45;8.10;;;3.20;;
82292;SDS011;71892;14.836;105.234;2023-07-31T13:48:11;9.32;;;3.47;;
82292;SDS011;71892;14.836;105.234;2023-07-31T13:50:38;9.02;;;2.80;;
82292;SDS011;71892;14.836;105.234;2023-07-31T13:53:04;8.05;;;3.75;;
82292;SDS011;71892;14.836;105.234;2023-07-31T13:55:31;7.32;;;3.17;;
82292;SDS011;71892;14.836;105.234;2023-07-31T13:57:57;4.93;;;2.90;;
82292;SDS011;71892;14.836;105.234;2023-07-31T14:00:23;8.23;;;3.78;;
82292;SDS011;71892;14.836;105.234;2023-07-31T14:02:50;6.13;;;3.25;;
82292;SDS011;71892;14.836;105.234;2023-07-31T14:05:16;10.07;;;3.33;;
82292;SDS011;71892;14.836;105.234;2023-07-31T14:07:43;10.65;;;4.40;;
82292;SDS011;71892;14.836;105.234;2023-07-31T14:10:09;10.77;;;4.13;;
82292;SDS011;71892;14.836;105.234;2023-07-31T14:12:36;10.18;;;5.03;;
82292;SDS011;71892;14.836;105.234;2023-07-31T14:15:02;8.70;;;4.03;;
82292;SDS011;71892;14.836;105.234;2023-07-31T14:17:29;8.85;;;3.97;;
82292;SDS011;71892;14.836;105.234;2023-07-31T14:19:55;7.68;;;3.25;;
82292;SDS011;71892;14.836;105.234;2023-07-31T14:22:30;7.35;;;3.22;;
82292;SDS011;71892;14.836;105.234;2023-07-31T14:24:59;8.55;;;3.20;;
82292;SDS011;71892;14.836;105.234;2023-07-31T14:27:26;14.63;;;3.50;;